createdAt,value
2022-08-07T00:01:00.000Z,163
2022-08-07T00:02:17.000Z,165
2022-08-07T00:03:33.000Z,163
2022-08-07T00:04:48.000Z,163
2022-08-07T00:06:04.000Z,162
2022-08-07T00:07:20.000Z,166
2022-08-07T00:08:37.000Z,164
2022-08-07T00:09:53.000Z,165
2022-08-07T00:11:09.000Z,164
2022-08-07T00:12:25.000Z,163
2022-08-07T00:13:42.000Z,162
2022-08-07T00:14:58.000Z,163
2022-08-07T00:16:14.000Z,162
2022-08-07T00:17:30.000Z,162
2022-08-07T00:18:47.000Z,163
2022-08-07T00:20:03.000Z,165
2022-08-07T00:21:18.000Z,165
2022-08-07T00:22:34.000Z,165
2022-08-07T00:23:51.000Z,165
2022-08-07T00:25:07.000Z,164
2022-08-07T00:26:23.000Z,162
2022-08-07T00:27:39.000Z,164
2022-08-07T00:28:55.000Z,165
2022-08-07T00:30:12.000Z,164
2022-08-07T00:31:28.000Z,165
2022-08-07T00:32:44.000Z,163
2022-08-07T00:34:00.000Z,164
2022-08-07T00:35:17.000Z,160
2022-08-07T00:36:33.000Z,161
2022-08-07T00:37:48.000Z,162
2022-08-07T00:39:04.000Z,163
2022-08-07T00:40:21.000Z,164
2022-08-07T00:41:37.000Z,162
2022-08-07T00:42:53.000Z,163
2022-08-07T00:44:09.000Z,164
2022-08-07T00:45:26.000Z,163
2022-08-07T00:46:42.000Z,161
2022-08-07T00:47:58.000Z,162
2022-08-07T00:49:14.000Z,163
2022-08-07T00:50:30.000Z,165
2022-08-07T00:51:47.000Z,163
2022-08-07T00:53:03.000Z,161
2022-08-07T00:54:18.000Z,160
2022-08-07T00:55:34.000Z,161
2022-08-07T00:56:51.000Z,163
2022-08-07T00:58:07.000Z,163
2022-08-07T00:59:23.000Z,161
2022-08-07T01:00:39.000Z,162
2022-08-07T01:01:56.000Z,159
2022-08-07T01:03:12.000Z,154
2022-08-07T01:04:28.000Z,159
2022-08-07T01:05:44.000Z,164
2022-08-07T01:07:01.000Z,164
2022-08-07T01:08:17.000Z,164
2022-08-07T01:09:33.000Z,163
2022-08-07T01:10:48.000Z,163
2022-08-07T01:12:04.000Z,161
2022-08-07T01:13:21.000Z,161
2022-08-07T01:14:37.000Z,158
2022-08-07T01:15:53.000Z,152
2022-08-07T01:17:09.000Z,152
2022-08-07T01:18:25.000Z,152
2022-08-07T01:19:41.000Z,151
2022-08-07T01:20:57.000Z,151
2022-08-07T01:22:13.000Z,155
2022-08-07T01:23:30.000Z,162
2022-08-07T01:24:46.000Z,160
2022-08-07T01:26:02.000Z,160
2022-08-07T01:27:18.000Z,155
2022-08-07T01:28:35.000Z,154
2022-08-07T01:29:51.000Z,154
2022-08-07T01:31:07.000Z,151
2022-08-07T01:32:23.000Z,150
2022-08-07T01:33:39.000Z,151
2022-08-07T01:34:55.000Z,148
2022-08-07T01:36:11.000Z,148
2022-08-07T01:37:27.000Z,145
2022-08-07T01:38:43.000Z,146
2022-08-07T01:40:00.000Z,147
2022-08-07T01:41:16.000Z,147
2022-08-07T01:42:32.000Z,148
2022-08-07T01:43:48.000Z,155
2022-08-07T01:45:05.000Z,165
2022-08-07T01:46:21.000Z,163
2022-08-07T01:47:37.000Z,164
2022-08-07T01:48:53.000Z,163
2022-08-07T01:50:10.000Z,165
2022-08-07T01:51:25.000Z,165
2022-08-07T01:52:41.000Z,168
2022-08-07T01:53:57.000Z,164
2022-08-07T01:55:13.000Z,162
2022-08-07T01:56:30.000Z,161
2022-08-07T01:57:46.000Z,162
2022-08-07T01:59:02.000Z,161
2022-08-07T02:00:18.000Z,161
2022-08-07T02:01:35.000Z,161
2022-08-07T02:02:51.000Z,162
2022-08-07T02:04:07.000Z,165
2022-08-07T02:05:23.000Z,165
2022-08-07T02:06:40.000Z,165
2022-08-07T02:07:55.000Z,165
2022-08-07T02:09:11.000Z,163
2022-08-07T02:10:27.000Z,163
2022-08-07T02:11:44.000Z,166
2022-08-07T02:13:00.000Z,160
2022-08-07T02:14:16.000Z,156
2022-08-07T02:15:32.000Z,153
2022-08-07T02:16:48.000Z,150
2022-08-07T02:18:05.000Z,149
2022-08-07T02:19:20.000Z,148
2022-08-07T02:20:35.000Z,148
2022-08-07T02:21:51.000Z,146
2022-08-07T02:23:07.000Z,144
2022-08-07T02:24:22.000Z,145
2022-08-07T02:25:38.000Z,144
2022-08-07T02:26:54.000Z,144
2022-08-07T02:28:11.000Z,143
2022-08-07T02:29:27.000Z,141
2022-08-07T02:30:43.000Z,144
2022-08-07T02:31:59.000Z,143
2022-08-07T02:33:16.000Z,142
2022-08-07T02:34:32.000Z,143
2022-08-07T02:35:48.000Z,142
2022-08-07T02:37:04.000Z,138
2022-08-07T02:38:21.000Z,140
2022-08-07T02:39:37.000Z,138
2022-08-07T02:40:52.000Z,141
2022-08-07T02:42:08.000Z,143
2022-08-07T02:43:24.000Z,142
2022-08-07T02:44:41.000Z,143
2022-08-07T02:45:57.000Z,140
2022-08-07T02:47:13.000Z,143
2022-08-07T02:48:29.000Z,143
2022-08-07T02:49:46.000Z,143
2022-08-07T02:51:01.000Z,143
2022-08-07T02:52:17.000Z,142
2022-08-07T02:53:33.000Z,140
2022-08-07T02:54:48.000Z,142
2022-08-07T02:56:04.000Z,142
2022-08-07T02:57:20.000Z,143
2022-08-07T02:58:36.000Z,137
2022-08-07T02:59:53.000Z,139
2022-08-07T03:01:09.000Z,137
2022-08-07T03:02:25.000Z,140
2022-08-07T03:03:41.000Z,137
2022-08-07T03:04:58.000Z,138
2022-08-07T03:06:14.000Z,138
2022-08-07T03:07:30.000Z,139
2022-08-07T03:08:46.000Z,138
2022-08-07T03:10:03.000Z,138
2022-08-07T03:11:18.000Z,140
2022-08-07T03:12:34.000Z,144
2022-08-07T03:13:50.000Z,143
2022-08-07T03:15:07.000Z,144
2022-08-07T03:16:23.000Z,144
2022-08-07T03:17:39.000Z,145
2022-08-07T03:18:55.000Z,144
2022-08-07T03:20:11.000Z,142
2022-08-07T03:21:28.000Z,145
2022-08-07T03:22:44.000Z,145
2022-08-07T03:24:00.000Z,146
2022-08-07T03:25:16.000Z,146
2022-08-07T03:26:33.000Z,143
2022-08-07T03:27:48.000Z,145
2022-08-07T03:29:04.000Z,146
2022-08-07T03:30:20.000Z,148
2022-08-07T03:31:37.000Z,149
2022-08-07T03:32:53.000Z,148
2022-08-07T03:34:09.000Z,151
2022-08-07T03:35:25.000Z,154
2022-08-07T03:36:42.000Z,160
2022-08-07T03:37:58.000Z,127
2022-08-07T03:39:14.000Z,15
2022-08-07T03:40:30.000Z,17
2022-08-07T03:41:46.000Z,19
2022-08-07T03:43:02.000Z,27
2022-08-07T03:44:17.000Z,32
2022-08-07T03:45:33.000Z,37
2022-08-07T03:46:49.000Z,44
2022-08-07T03:48:06.000Z,53
2022-08-07T03:49:22.000Z,63
2022-08-07T03:50:37.000Z,70
2022-08-07T03:51:52.000Z,86
2022-08-07T03:53:09.000Z,96
2022-08-07T03:54:25.000Z,112
2022-08-07T03:55:41.000Z,128
2022-08-07T03:56:57.000Z,144
2022-08-07T03:58:14.000Z,164
2022-08-07T03:59:30.000Z,186
2022-08-07T04:00:46.000Z,207
2022-08-07T04:02:02.000Z,230
2022-08-07T04:03:19.000Z,257
2022-08-07T04:04:35.000Z,284
2022-08-07T04:05:51.000Z,314
2022-08-07T04:07:07.000Z,346
2022-08-07T04:08:22.000Z,378
2022-08-07T04:09:39.000Z,413
2022-08-07T04:10:55.000Z,445
2022-08-07T04:12:11.000Z,477
2022-08-07T04:13:27.000Z,507
2022-08-07T04:14:44.000Z,537
2022-08-07T04:16:00.000Z,567
2022-08-07T04:17:16.000Z,595
2022-08-07T04:18:32.000Z,627
2022-08-07T04:19:49.000Z,660
2022-08-07T04:21:05.000Z,694
2022-08-07T04:22:21.000Z,720
2022-08-07T04:23:37.000Z,747
2022-08-07T04:24:53.000Z,779
2022-08-07T04:26:09.000Z,813
2022-08-07T04:27:25.000Z,845
2022-08-07T04:28:41.000Z,879
2022-08-07T04:29:57.000Z,912
2022-08-07T04:31:14.000Z,944
2022-08-07T04:32:29.000Z,972
2022-08-07T04:33:44.000Z,1009
2022-08-07T04:34:59.000Z,1041
2022-08-07T04:36:15.000Z,1077
2022-08-07T04:37:31.000Z,1118
2022-08-07T04:38:47.000Z,1155
2022-08-07T04:40:03.000Z,1195
2022-08-07T04:41:20.000Z,1235
2022-08-07T04:42:36.000Z,1273
2022-08-07T04:43:52.000Z,1306
2022-08-07T04:45:08.000Z,1334
2022-08-07T04:46:25.000Z,1361
2022-08-07T04:47:41.000Z,1394
2022-08-07T04:48:57.000Z,1429
2022-08-07T04:50:13.000Z,1470
2022-08-07T04:51:30.000Z,1496
2022-08-07T04:52:45.000Z,1525
2022-08-07T04:54:01.000Z,1554
2022-08-07T04:55:17.000Z,1581
2022-08-07T04:56:33.000Z,1614
2022-08-07T04:57:50.000Z,1642
2022-08-07T04:59:06.000Z,1670
2022-08-07T05:00:22.000Z,1698
2022-08-07T05:01:38.000Z,1722
2022-08-07T05:02:55.000Z,1748
2022-08-07T05:04:11.000Z,1779
2022-08-07T05:05:27.000Z,1810
2022-08-07T05:06:43.000Z,1838
2022-08-07T05:08:00.000Z,1867
2022-08-07T05:09:15.000Z,1892
2022-08-07T05:10:31.000Z,1911
2022-08-07T05:11:47.000Z,1933
2022-08-07T05:13:04.000Z,1959
2022-08-07T05:14:20.000Z,1980
2022-08-07T05:15:36.000Z,1999
2022-08-07T05:16:52.000Z,2016
2022-08-07T05:18:08.000Z,2039
2022-08-07T05:19:25.000Z,2067
2022-08-07T05:20:41.000Z,2096
2022-08-07T05:21:57.000Z,2119
2022-08-07T05:23:13.000Z,2140
2022-08-07T05:24:30.000Z,2156
2022-08-07T05:25:45.000Z,2177
2022-08-07T05:27:01.000Z,2198
2022-08-07T05:28:17.000Z,2216
2022-08-07T05:29:34.000Z,2235
2022-08-07T05:30:50.000Z,2253
2022-08-07T05:32:06.000Z,2270
2022-08-07T05:33:21.000Z,2285
2022-08-07T05:34:38.000Z,2304
2022-08-07T05:35:54.000Z,2323
2022-08-07T05:37:10.000Z,2342
2022-08-07T05:38:26.000Z,2355
2022-08-07T05:39:42.000Z,2374
2022-08-07T05:40:59.000Z,2392
2022-08-07T05:42:15.000Z,2406
2022-08-07T05:43:31.000Z,2422
2022-08-07T05:44:47.000Z,2436
2022-08-07T05:46:04.000Z,2452
2022-08-07T05:47:20.000Z,2463
2022-08-07T05:48:36.000Z,2477
2022-08-07T05:49:51.000Z,2494
2022-08-07T05:51:08.000Z,2504
2022-08-07T05:52:24.000Z,2521
2022-08-07T05:53:40.000Z,2535
2022-08-07T05:54:56.000Z,2547
2022-08-07T05:56:13.000Z,2557
2022-08-07T05:57:29.000Z,2566
2022-08-07T05:58:45.000Z,2572
2022-08-07T06:00:00.000Z,2575
2022-08-07T06:01:16.000Z,2586
2022-08-07T06:02:31.000Z,2601
2022-08-07T06:03:46.000Z,2616
2022-08-07T06:05:02.000Z,2634
2022-08-07T06:06:19.000Z,2651
2022-08-07T06:07:35.000Z,2663
2022-08-07T06:08:51.000Z,2674
2022-08-07T06:10:07.000Z,2686
2022-08-07T06:11:23.000Z,2698
2022-08-07T06:12:40.000Z,2709
2022-08-07T06:13:56.000Z,2719
2022-08-07T06:15:12.000Z,2729
2022-08-07T06:16:28.000Z,2740
2022-08-07T06:17:45.000Z,2747
2022-08-07T06:19:01.000Z,2757
2022-08-07T06:20:16.000Z,2765
2022-08-07T06:21:32.000Z,2773
2022-08-07T06:22:49.000Z,2783
2022-08-07T06:24:05.000Z,2790
2022-08-07T06:25:21.000Z,2800
2022-08-07T06:26:37.000Z,2812
2022-08-07T06:27:54.000Z,2822
2022-08-07T06:29:10.000Z,2830
2022-08-07T06:30:26.000Z,2839
2022-08-07T06:31:42.000Z,2850
2022-08-07T06:32:58.000Z,2854
2022-08-07T06:34:15.000Z,2860
2022-08-07T06:35:31.000Z,2866
2022-08-07T06:36:46.000Z,2878
2022-08-07T06:38:02.000Z,2881
2022-08-07T06:39:19.000Z,2887
2022-08-07T06:40:35.000Z,2892
2022-08-07T06:41:51.000Z,2897
2022-08-07T06:43:07.000Z,2905
2022-08-07T06:44:24.000Z,2911
2022-08-07T06:45:40.000Z,2916
2022-08-07T06:46:56.000Z,2922
2022-08-07T06:48:12.000Z,2927
2022-08-07T06:49:28.000Z,2931
2022-08-07T06:50:45.000Z,2936
2022-08-07T06:52:01.000Z,2939
2022-08-07T06:53:16.000Z,2945
2022-08-07T06:54:32.000Z,2950
2022-08-07T06:55:49.000Z,2957
2022-08-07T06:57:05.000Z,2963
2022-08-07T06:58:21.000Z,2969
2022-08-07T06:59:37.000Z,2976
2022-08-07T07:00:54.000Z,2979
2022-08-07T07:02:10.000Z,2984
2022-08-07T07:03:26.000Z,2988
2022-08-07T07:04:42.000Z,2995
2022-08-07T07:05:59.000Z,3001
2022-08-07T07:07:15.000Z,3009
2022-08-07T07:08:30.000Z,3017
2022-08-07T07:09:45.000Z,3016
2022-08-07T07:11:01.000Z,3022
2022-08-07T07:12:16.000Z,3024
2022-08-07T07:13:32.000Z,3028
2022-08-07T07:14:48.000Z,3033
2022-08-07T07:16:05.000Z,3033
2022-08-07T07:17:21.000Z,3039
2022-08-07T07:18:37.000Z,3044
2022-08-07T07:19:53.000Z,3048
2022-08-07T07:21:09.000Z,3054
2022-08-07T07:22:26.000Z,3059
2022-08-07T07:23:42.000Z,3061
2022-08-07T07:24:58.000Z,3063
2022-08-07T07:26:14.000Z,3066
2022-08-07T07:27:31.000Z,3067
2022-08-07T07:28:46.000Z,3068
2022-08-07T07:30:02.000Z,3069
2022-08-07T07:31:18.000Z,3070
2022-08-07T07:32:35.000Z,3069
2022-08-07T07:33:51.000Z,3072
2022-08-07T07:35:07.000Z,3073
2022-08-07T07:36:23.000Z,3075
2022-08-07T07:37:39.000Z,3077
2022-08-07T07:38:54.000Z,3080
2022-08-07T07:40:09.000Z,3084
2022-08-07T07:41:24.000Z,3082
2022-08-07T07:42:41.000Z,3091
2022-08-07T07:43:57.000Z,3091
2022-08-07T07:45:13.000Z,3095
2022-08-07T07:46:29.000Z,3099
2022-08-07T07:47:45.000Z,3100
2022-08-07T07:49:02.000Z,3104
2022-08-07T07:50:18.000Z,3107
2022-08-07T07:51:34.000Z,3113
2022-08-07T07:52:50.000Z,3120
2022-08-07T07:54:07.000Z,3120
2022-08-07T07:55:23.000Z,3124
2022-08-07T07:56:39.000Z,3128
2022-08-07T07:57:54.000Z,3129
2022-08-07T07:59:11.000Z,3132
2022-08-07T08:00:27.000Z,3136
2022-08-07T08:01:43.000Z,3138
2022-08-07T08:02:59.000Z,3146
2022-08-07T08:04:15.000Z,3152
2022-08-07T08:05:32.000Z,3155
2022-08-07T08:06:48.000Z,3156
2022-08-07T08:08:04.000Z,3158
2022-08-07T08:09:20.000Z,3158
2022-08-07T08:10:37.000Z,3163
2022-08-07T08:11:53.000Z,3169
2022-08-07T08:13:09.000Z,3174
2022-08-07T08:14:24.000Z,3179
2022-08-07T08:15:41.000Z,3181
2022-08-07T08:16:57.000Z,3186
2022-08-07T08:18:13.000Z,3189
2022-08-07T08:19:29.000Z,3191
2022-08-07T08:20:46.000Z,3196
2022-08-07T08:22:02.000Z,3203
2022-08-07T08:23:18.000Z,3205
2022-08-07T08:24:34.000Z,3210
2022-08-07T08:25:50.000Z,3210
2022-08-07T08:27:07.000Z,3212
2022-08-07T08:28:23.000Z,3213
2022-08-07T08:29:39.000Z,3212
2022-08-07T08:30:54.000Z,3215
2022-08-07T08:32:11.000Z,3216
2022-08-07T08:33:26.000Z,3215
2022-08-07T08:34:41.000Z,3214
2022-08-07T08:35:57.000Z,3220
2022-08-07T08:37:14.000Z,3222
2022-08-07T08:38:30.000Z,3222
2022-08-07T08:39:46.000Z,3226
2022-08-07T08:41:02.000Z,3230
2022-08-07T08:42:19.000Z,3229
2022-08-07T08:43:35.000Z,3230
2022-08-07T08:44:51.000Z,3232
2022-08-07T08:46:07.000Z,3234
2022-08-07T08:47:24.000Z,3235
2022-08-07T08:48:39.000Z,3240
2022-08-07T08:49:54.000Z,3246
2022-08-07T08:51:10.000Z,3252
2022-08-07T08:52:27.000Z,3258
2022-08-07T08:53:43.000Z,3261
2022-08-07T08:54:59.000Z,3264
2022-08-07T08:56:15.000Z,3268
2022-08-07T08:57:31.000Z,3272
2022-08-07T08:58:48.000Z,3280
2022-08-07T09:00:04.000Z,3285
2022-08-07T09:01:20.000Z,3295
2022-08-07T09:02:36.000Z,3305
2022-08-07T09:03:53.000Z,3317
2022-08-07T09:05:09.000Z,3330
2022-08-07T09:06:24.000Z,3337
2022-08-07T09:07:40.000Z,3345
2022-08-07T09:08:57.000Z,3358
2022-08-07T09:10:13.000Z,3368
2022-08-07T09:11:29.000Z,3391
2022-08-07T09:12:45.000Z,3442
2022-08-07T09:14:01.000Z,3515
2022-08-07T09:15:18.000Z,3593
2022-08-07T09:16:34.000Z,3644
2022-08-07T09:17:50.000Z,3655
2022-08-07T09:19:06.000Z,3604
2022-08-07T09:20:23.000Z,3534
2022-08-07T09:21:39.000Z,3494
2022-08-07T09:22:54.000Z,3482
2022-08-07T09:24:10.000Z,3498
2022-08-07T09:25:26.000Z,3558
2022-08-07T09:26:41.000Z,3630
2022-08-07T09:27:57.000Z,3655
2022-08-07T09:29:13.000Z,3637
2022-08-07T09:30:30.000Z,3635
2022-08-07T09:31:46.000Z,3721
2022-08-07T09:33:01.000Z,3842
2022-08-07T09:34:16.000Z,3928
2022-08-07T09:35:33.000Z,3902
2022-08-07T09:36:49.000Z,3897
2022-08-07T09:38:05.000Z,3946
2022-08-07T09:39:21.000Z,3933
2022-08-07T09:40:38.000Z,3990
2022-08-07T09:41:54.000Z,4083
2022-08-07T09:43:10.000Z,4172
2022-08-07T09:44:26.000Z,4254
2022-08-07T09:45:42.000Z,4317
2022-08-07T09:46:59.000Z,4512
2022-08-07T09:48:14.000Z,4831
2022-08-07T09:49:30.000Z,4966
2022-08-07T09:50:46.000Z,4645
2022-08-07T09:52:03.000Z,4317
2022-08-07T09:53:19.000Z,4060
2022-08-07T09:54:35.000Z,3817
2022-08-07T09:55:51.000Z,3714
2022-08-07T09:57:08.000Z,3652
2022-08-07T09:58:24.000Z,3577
2022-08-07T09:59:40.000Z,3831
2022-08-07T10:00:56.000Z,4239
2022-08-07T10:02:13.000Z,4411
2022-08-07T10:03:29.000Z,4552
2022-08-07T10:04:44.000Z,4556
2022-08-07T10:06:00.000Z,4613
2022-08-07T10:07:16.000Z,4771
2022-08-07T10:08:33.000Z,4908
2022-08-07T10:09:49.000Z,5059
2022-08-07T10:11:05.000Z,5031
2022-08-07T10:12:21.000Z,4997
2022-08-07T10:13:38.000Z,5004
2022-08-07T10:14:54.000Z,4828
2022-08-07T10:16:10.000Z,4681
2022-08-07T10:17:26.000Z,4762
2022-08-07T10:18:43.000Z,4712
2022-08-07T10:19:59.000Z,4482
2022-08-07T10:21:14.000Z,4637
2022-08-07T10:22:30.000Z,4814
2022-08-07T10:23:47.000Z,4880
2022-08-07T10:25:03.000Z,4796
2022-08-07T10:26:19.000Z,4570
2022-08-07T10:27:35.000Z,4528
2022-08-07T10:28:51.000Z,4450
2022-08-07T10:30:08.000Z,4380
2022-08-07T10:31:24.000Z,4364
2022-08-07T10:32:40.000Z,4328
2022-08-07T10:33:56.000Z,4252
2022-08-07T10:35:13.000Z,4163
2022-08-07T10:36:29.000Z,4034
2022-08-07T10:37:44.000Z,3943
2022-08-07T10:39:00.000Z,3932
2022-08-07T10:40:17.000Z,3927
2022-08-07T10:41:33.000Z,3941
2022-08-07T10:42:49.000Z,4320
2022-08-07T10:44:05.000Z,5035
2022-08-07T10:45:22.000Z,6282
2022-08-07T10:46:38.000Z,6603
2022-08-07T10:47:54.000Z,6601
2022-08-07T10:49:10.000Z,6278
2022-08-07T10:50:26.000Z,6058
2022-08-07T10:51:43.000Z,5943
2022-08-07T10:52:59.000Z,5857
2022-08-07T10:54:14.000Z,5835
2022-08-07T10:55:30.000Z,5753
2022-08-07T10:56:47.000Z,5582
2022-08-07T10:58:03.000Z,5508
2022-08-07T10:59:19.000Z,5392
2022-08-07T11:00:35.000Z,5275
2022-08-07T11:01:52.000Z,5229
2022-08-07T11:03:08.000Z,5328
2022-08-07T11:04:24.000Z,5554
2022-08-07T11:05:39.000Z,5806
2022-08-07T11:06:55.000Z,6115
2022-08-07T11:08:11.000Z,6435
2022-08-07T11:09:27.000Z,6665
2022-08-07T11:10:43.000Z,6885
2022-08-07T11:11:59.000Z,7090
2022-08-07T11:13:16.000Z,6957
2022-08-07T11:14:32.000Z,6529
2022-08-07T11:15:48.000Z,6230
2022-08-07T11:17:04.000Z,6237
2022-08-07T11:18:20.000Z,6279
2022-08-07T11:19:35.000Z,6122
2022-08-07T11:20:51.000Z,5970
2022-08-07T11:22:07.000Z,5875
2022-08-07T11:23:24.000Z,5963
2022-08-07T11:24:40.000Z,6318
2022-08-07T11:25:56.000Z,6773
2022-08-07T11:27:12.000Z,7120
2022-08-07T11:28:29.000Z,7370
2022-08-07T11:29:45.000Z,8010
2022-08-07T11:31:01.000Z,8083
2022-08-07T11:32:17.000Z,7895
2022-08-07T11:33:33.000Z,7854
2022-08-07T11:34:50.000Z,7932
2022-08-07T11:36:06.000Z,7933
2022-08-07T11:37:21.000Z,7806
2022-08-07T11:38:37.000Z,7634
2022-08-07T11:39:54.000Z,7558
2022-08-07T11:41:10.000Z,7487
2022-08-07T11:42:26.000Z,7599
2022-08-07T11:43:42.000Z,7492
2022-08-07T11:44:59.000Z,7339
2022-08-07T11:46:15.000Z,6896
2022-08-07T11:47:31.000Z,6502
2022-08-07T11:48:47.000Z,6252
2022-08-07T11:50:04.000Z,5987
2022-08-07T11:51:20.000Z,5519
2022-08-07T11:52:36.000Z,5104
2022-08-07T11:53:51.000Z,5249
2022-08-07T11:55:07.000Z,5538
2022-08-07T11:56:24.000Z,5967
2022-08-07T11:57:40.000Z,6405
2022-08-07T11:58:56.000Z,6613
2022-08-07T12:00:12.000Z,6534
2022-08-07T12:01:29.000Z,6208
2022-08-07T12:02:45.000Z,5712
2022-08-07T12:04:01.000Z,5795
2022-08-07T12:05:17.000Z,6282
2022-08-07T12:06:34.000Z,6632
2022-08-07T12:07:50.000Z,6632
2022-08-07T12:09:06.000Z,6560
2022-08-07T12:10:21.000Z,6572
2022-08-07T12:11:38.000Z,6656
2022-08-07T12:12:54.000Z,6568
2022-08-07T12:14:10.000Z,6431
2022-08-07T12:15:26.000Z,6299
2022-08-07T12:16:42.000Z,6193
2022-08-07T12:17:59.000Z,6182
2022-08-07T12:19:15.000Z,6319
2022-08-07T12:20:31.000Z,6378
2022-08-07T12:21:47.000Z,6463
2022-08-07T12:23:04.000Z,6734
2022-08-07T12:24:20.000Z,7017
2022-08-07T12:25:36.000Z,7394
2022-08-07T12:26:52.000Z,7753
2022-08-07T12:28:08.000Z,7958
2022-08-07T12:29:24.000Z,8058
2022-08-07T12:30:40.000Z,8117
2022-08-07T12:31:56.000Z,7835
2022-08-07T12:33:13.000Z,7386
2022-08-07T12:34:29.000Z,7114
2022-08-07T12:35:45.000Z,6990
2022-08-07T12:37:01.000Z,6844
2022-08-07T12:38:17.000Z,6659
2022-08-07T12:39:34.000Z,6598
2022-08-07T12:40:50.000Z,6809
2022-08-07T12:42:06.000Z,7194
2022-08-07T12:43:22.000Z,7603
2022-08-07T12:44:38.000Z,7917
2022-08-07T12:45:54.000Z,8182
2022-08-07T12:47:10.000Z,8570
2022-08-07T12:48:26.000Z,9054
2022-08-07T12:49:43.000Z,9215
2022-08-07T12:50:59.000Z,8925
2022-08-07T12:52:15.000Z,8604
2022-08-07T12:53:31.000Z,8584
2022-08-07T12:54:48.000Z,8961
2022-08-07T12:56:04.000Z,8926
2022-08-07T12:57:20.000Z,8622
2022-08-07T12:58:36.000Z,8547
2022-08-07T12:59:52.000Z,8697
2022-08-07T13:01:08.000Z,8437
2022-08-07T13:02:24.000Z,8115
2022-08-07T13:03:40.000Z,7829
2022-08-07T13:04:56.000Z,7353
2022-08-07T13:06:13.000Z,6667
2022-08-07T13:07:29.000Z,6154
2022-08-07T13:08:45.000Z,5864
2022-08-07T13:10:01.000Z,5788
2022-08-07T13:11:18.000Z,5783
2022-08-07T13:12:33.000Z,5821
2022-08-07T13:13:48.000Z,5861
2022-08-07T13:15:03.000Z,5905
2022-08-07T13:16:19.000Z,6005
2022-08-07T13:17:35.000Z,6175
2022-08-07T13:18:51.000Z,6401
2022-08-07T13:20:07.000Z,6680
2022-08-07T13:21:24.000Z,6909
2022-08-07T13:22:40.000Z,7103
2022-08-07T13:23:56.000Z,7397
2022-08-07T13:25:12.000Z,2643
2022-08-07T13:26:28.000Z,7712
2022-08-07T13:27:45.000Z,76720
2022-08-07T13:29:01.000Z,80271
2022-08-07T13:30:17.000Z,81300
2022-08-07T13:31:33.000Z,79693
2022-08-07T13:32:50.000Z,78737
2022-08-07T13:34:05.000Z,82431
2022-08-07T13:35:21.000Z,79660
2022-08-07T13:36:37.000Z,82417
2022-08-07T13:37:54.000Z,81903
2022-08-07T13:39:10.000Z,82664
2022-08-07T13:40:26.000Z,81468
2022-08-07T13:41:41.000Z,81686
2022-08-07T13:42:58.000Z,80934
2022-08-07T13:44:13.000Z,79810
2022-08-07T13:45:29.000Z,80609
2022-08-07T13:46:45.000Z,77953
2022-08-07T13:48:01.000Z,76799
2022-08-07T13:49:16.000Z,76597
2022-08-07T13:50:32.000Z,79222
2022-08-07T13:51:48.000Z,82405
2022-08-07T13:53:04.000Z,82107
2022-08-07T13:54:21.000Z,82198
2022-08-07T13:55:37.000Z,81679
2022-08-07T13:56:53.000Z,82114
2022-08-07T13:58:09.000Z,79642
2022-08-07T13:59:26.000Z,82203
2022-08-07T14:00:42.000Z,80392
2022-08-07T14:01:58.000Z,82909
2022-08-07T14:03:13.000Z,82415
2022-08-07T14:04:30.000Z,82120
2022-08-07T14:05:46.000Z,83404
2022-08-07T14:07:02.000Z,80341
2022-08-07T14:08:18.000Z,82920
2022-08-07T14:09:35.000Z,82388
2022-08-07T14:10:51.000Z,80991
2022-08-07T14:12:07.000Z,79228
2022-08-07T14:13:23.000Z,81040
2022-08-07T14:14:39.000Z,79602
2022-08-07T14:15:54.000Z,79503
2022-08-07T14:17:10.000Z,80082
2022-08-07T14:18:25.000Z,79824
2022-08-07T14:19:41.000Z,80094
2022-08-07T14:20:57.000Z,78561
2022-08-07T14:22:13.000Z,79612
2022-08-07T14:23:29.000Z,80753
2022-08-07T14:24:45.000Z,80542
2022-08-07T14:26:02.000Z,78173
2022-08-07T14:27:18.000Z,76164
2022-08-07T14:28:34.000Z,76407
2022-08-07T14:29:50.000Z,80703
2022-08-07T14:31:07.000Z,82091
2022-08-07T14:32:23.000Z,82488
2022-08-07T14:33:39.000Z,83872
2022-08-07T14:34:55.000Z,83658
2022-08-07T14:36:11.000Z,82320
2022-08-07T14:37:27.000Z,82423
2022-08-07T14:38:43.000Z,81951
2022-08-07T14:39:59.000Z,82213
2022-08-07T14:41:16.000Z,83464
2022-08-07T14:42:32.000Z,81091
2022-08-07T14:43:48.000Z,75700
2022-08-07T14:45:04.000Z,78085
2022-08-07T14:46:20.000Z,83574
2022-08-07T14:47:37.000Z,81078
2022-08-07T14:48:53.000Z,82557
2022-08-07T14:50:09.000Z,79305
2022-08-07T14:51:25.000Z,77651
2022-08-07T14:52:41.000Z,77603
2022-08-07T14:53:57.000Z,78067
2022-08-07T14:55:13.000Z,76422
2022-08-07T14:56:29.000Z,76253
2022-08-07T14:57:46.000Z,76110
2022-08-07T14:59:02.000Z,77256
2022-08-07T15:00:18.000Z,76378
2022-08-07T15:01:34.000Z,77136
2022-08-07T15:02:51.000Z,78490
2022-08-07T15:04:07.000Z,80466
2022-08-07T15:05:23.000Z,82421
2022-08-07T15:06:38.000Z,81258
2022-08-07T15:07:54.000Z,80074
2022-08-07T15:09:09.000Z,78349
2022-08-07T15:10:24.000Z,75681
2022-08-07T15:11:40.000Z,74651
2022-08-07T15:12:57.000Z,75586
2022-08-07T15:14:13.000Z,75478
2022-08-07T15:15:29.000Z,74353
2022-08-07T15:16:45.000Z,76678
2022-08-07T15:18:01.000Z,77426
2022-08-07T15:19:18.000Z,75007
2022-08-07T15:20:34.000Z,74056
2022-08-07T15:21:50.000Z,74091
2022-08-07T15:23:06.000Z,73721
2022-08-07T15:24:23.000Z,75693
2022-08-07T15:25:39.000Z,76745
2022-08-07T15:26:54.000Z,76027
2022-08-07T15:28:10.000Z,74285
2022-08-07T15:29:27.000Z,72115
2022-08-07T15:30:43.000Z,72539
2022-08-07T15:31:59.000Z,72658
2022-08-07T15:33:15.000Z,72082
2022-08-07T15:34:32.000Z,72524
2022-08-07T15:35:48.000Z,58372
2022-08-07T15:37:04.000Z,4687
2022-08-07T15:38:20.000Z,58769
2022-08-07T15:39:36.000Z,12043
2022-08-07T15:40:53.000Z,11908
2022-08-07T15:42:09.000Z,11218
2022-08-07T15:43:24.000Z,10775
2022-08-07T15:44:40.000Z,10486
2022-08-07T15:45:57.000Z,10086
2022-08-07T15:47:13.000Z,9367
2022-08-07T15:48:29.000Z,3948
2022-08-07T15:49:45.000Z,18271
2022-08-07T15:51:02.000Z,69850
2022-08-07T15:52:18.000Z,22795
2022-08-07T15:53:34.000Z,69744
2022-08-07T15:54:50.000Z,26450
2022-08-07T15:56:07.000Z,10680
2022-08-07T15:57:23.000Z,7727
2022-08-07T15:58:39.000Z,5606
2022-08-07T15:59:54.000Z,74772
2022-08-07T16:01:10.000Z,74954
2022-08-07T16:02:27.000Z,74248
2022-08-07T16:03:43.000Z,74072
2022-08-07T16:04:59.000Z,75743
2022-08-07T16:06:15.000Z,70326
2022-08-07T16:07:32.000Z,29976
2022-08-07T16:08:48.000Z,13218
2022-08-07T16:10:04.000Z,18033
2022-08-07T16:11:20.000Z,4459
2022-08-07T16:12:37.000Z,75005
2022-08-07T16:13:53.000Z,74225
2022-08-07T16:15:09.000Z,72817
2022-08-07T16:16:24.000Z,33224
2022-08-07T16:17:41.000Z,29412
2022-08-07T16:18:57.000Z,33801
2022-08-07T16:20:13.000Z,29588
2022-08-07T16:21:29.000Z,25390
2022-08-07T16:22:45.000Z,22701
2022-08-07T16:24:02.000Z,74819
2022-08-07T16:25:18.000Z,72745
2022-08-07T16:26:34.000Z,36463
2022-08-07T16:27:50.000Z,29207
2022-08-07T16:29:07.000Z,32897
2022-08-07T16:30:23.000Z,32311
2022-08-07T16:31:39.000Z,31604
2022-08-07T16:32:54.000Z,35241
2022-08-07T16:34:11.000Z,33515
2022-08-07T16:35:27.000Z,26490
2022-08-07T16:36:43.000Z,27184
2022-08-07T16:37:59.000Z,28284
2022-08-07T16:39:16.000Z,12770
2022-08-07T16:40:32.000Z,11247
2022-08-07T16:41:48.000Z,10330
2022-08-07T16:43:04.000Z,9859
2022-08-07T16:44:20.000Z,11378
2022-08-07T16:45:37.000Z,10536
2022-08-07T16:46:53.000Z,11991
2022-08-07T16:48:09.000Z,10626
2022-08-07T16:49:24.000Z,7714
2022-08-07T16:50:41.000Z,13931
2022-08-07T16:51:57.000Z,18474
2022-08-07T16:53:13.000Z,33606
2022-08-07T16:54:29.000Z,24336
2022-08-07T16:55:46.000Z,22051